Řízení letového provozu České republiky
Letiste: LKPR Aktualizace: 18.12.2018 17:31:07  UTC
 METAR LKPR 18.12. 17:30 ...
METAR LKPR 181730Z 11004KT 8000 NSC M00/M01 Q1025 NOSIG RMK REG QNH 1021=
 TAF LKPR 18.12. 17:00 ...
TAF LKPR 181700Z 1818/2000 14005KT 9999 SCT035      TEMPO 1818/1908 VRB02KT 4000 BR NSC      PROB30 TEMPO 1820/1900 2500 BR BKN010=